createdAt,value
2022-11-18T00:00:55.148Z,8.45
2022-11-18T00:03:21.600Z,8.44
2022-11-18T00:05:55.875Z,8.48
2022-11-18T00:08:23.783Z,8.48
2022-11-18T00:10:50.605Z,8.49
2022-11-18T00:13:36.090Z,8.48
2022-11-18T00:16:08.643Z,8.50
2022-11-18T00:18:35.085Z,8.47
2022-11-18T00:21:06.069Z,8.46
2022-11-18T00:23:32.708Z,8.41
2022-11-18T00:26:11.294Z,8.39
2022-11-18T00:28:38.484Z,8.35
2022-11-18T00:31:07.927Z,8.32
2022-11-18T00:33:36.729Z,8.29
2022-11-18T00:36:05.349Z,8.26
2022-11-18T00:38:32.215Z,8.18
2022-11-18T00:41:03.650Z,8.10
2022-11-18T00:43:30.531Z,8.09
2022-11-18T00:45:57.406Z,8.05
2022-11-18T00:48:24.808Z,8.00
2022-11-18T00:50:54.802Z,8.02
2022-11-18T00:53:22.619Z,8.01
2022-11-18T00:55:49.587Z,8.00
2022-11-18T00:58:16.586Z,8.00
2022-11-18T01:00:45.147Z,7.99
2022-11-18T01:03:12.781Z,8.00
2022-11-18T01:05:39.697Z,8.00
2022-11-18T01:08:08.289Z,8.00
2022-11-18T01:10:34.786Z,7.98
2022-11-18T01:13:19.445Z,8.01
2022-11-18T01:15:54.620Z,8.00
2022-11-18T01:18:24.463Z,7.98
2022-11-18T01:20:51.254Z,7.95
2022-11-18T01:23:19.244Z,8.00
2022-11-18T01:25:47.880Z,8.02
2022-11-18T01:28:17.545Z,8.02
2022-11-18T01:30:46.937Z,8.01
2022-11-18T01:33:13.566Z,8.05
2022-11-18T01:35:42.720Z,8.06
2022-11-18T01:38:11.332Z,8.08
2022-11-18T01:40:38.673Z,8.10
2022-11-18T01:43:17.376Z,8.09
2022-11-18T01:45:45.994Z,8.11
2022-11-18T01:48:15.057Z,8.11
2022-11-18T01:51:01.839Z,8.11
2022-11-18T01:53:37.343Z,8.10
2022-11-18T01:56:17.675Z,8.08
2022-11-18T01:59:07.839Z,8.07
2022-11-18T02:01:34.311Z,8.05
2022-11-18T02:04:00.708Z,8.04
2022-11-18T02:06:27.212Z,8.04
2022-11-18T02:08:54.787Z,8.01
2022-11-18T02:11:40.237Z,7.99
2022-11-18T02:14:09.794Z,7.98
2022-11-18T02:17:10.115Z,7.97
2022-11-18T02:19:36.468Z,7.96
2022-11-18T02:22:21.673Z,7.96
2022-11-18T02:25:20.833Z,7.95
2022-11-18T02:28:14.776Z,7.97
2022-11-18T02:31:00.025Z,7.99
2022-11-18T02:33:49.474Z,8.02
2022-11-18T02:36:26.417Z,8.04
2022-11-18T02:38:59.863Z,8.06
2022-11-18T02:41:30.083Z,8.04
2022-11-18T02:44:03.396Z,8.08
2022-11-18T02:46:33.455Z,8.10
2022-11-18T02:49:04.366Z,8.10
2022-11-18T02:51:32.289Z,8.11
2022-11-18T02:54:07.243Z,8.14
2022-11-18T02:56:35.751Z,8.16
2022-11-18T02:59:03.082Z,8.17
2022-11-18T03:01:32.449Z,8.18
2022-11-18T03:03:58.909Z,8.19
2022-11-18T03:06:42.449Z,8.18
2022-11-18T03:09:24.171Z,8.13
2022-11-18T03:12:11.704Z,8.13
2022-11-18T03:15:12.239Z,8.09
2022-11-18T03:17:55.132Z,8.09
2022-11-18T03:20:33.144Z,8.11
2022-11-18T03:23:18.172Z,8.09
2022-11-18T03:25:55.148Z,8.11
2022-11-18T03:28:44.200Z,8.11
2022-11-18T03:31:16.583Z,8.07
2022-11-18T03:33:54.419Z,8.10
2022-11-18T03:36:24.184Z,8.09
2022-11-18T03:38:54.407Z,8.11
2022-11-18T03:41:24.017Z,8.11
2022-11-18T03:43:58.152Z,8.11
2022-11-18T03:46:35.262Z,8.09
2022-11-18T03:49:01.837Z,8.05
2022-11-18T03:51:37.360Z,8.01
2022-11-18T03:54:12.187Z,7.98
2022-11-18T03:56:43.931Z,7.94
2022-11-18T03:59:18.895Z,7.91
2022-11-18T04:01:52.528Z,7.88
2022-11-18T04:04:19.745Z,7.88
2022-11-18T04:06:50.835Z,7.85
2022-11-18T04:09:23.782Z,7.84
2022-11-18T04:12:04.644Z,7.81
2022-11-18T04:14:34.367Z,7.75
2022-11-18T04:17:05.445Z,7.76
2022-11-18T04:19:31.866Z,7.70
2022-11-18T04:21:58.240Z,7.67
2022-11-18T04:24:24.618Z,7.62
2022-11-18T04:26:51.075Z,7.57
2022-11-18T04:29:17.631Z,7.53
2022-11-18T04:31:44.292Z,7.48
2022-11-18T04:34:10.746Z,7.48
2022-11-18T04:36:37.195Z,7.44
2022-11-18T04:39:03.754Z,7.42
2022-11-18T04:41:48.670Z,7.42
2022-11-18T04:44:15.084Z,7.39
2022-11-18T04:46:42.818Z,7.37
2022-11-18T04:49:10.859Z,7.33
2022-11-18T04:51:37.541Z,7.31
2022-11-18T04:54:04.737Z,7.25
2022-11-18T04:56:31.811Z,7.19
2022-11-18T04:59:00.336Z,7.17
2022-11-18T05:01:28.363Z,7.16
2022-11-18T05:03:55.134Z,7.12
2022-11-18T05:06:22.154Z,7.08
2022-11-18T05:08:48.879Z,7.04
2022-11-18T05:11:33.554Z,7.04
2022-11-18T05:14:00.140Z,7.00
2022-11-18T05:16:26.571Z,7.00
2022-11-18T05:18:53.198Z,6.98
2022-11-18T05:21:19.622Z,6.93
2022-11-18T05:23:46.042Z,6.87
2022-11-18T05:26:12.453Z,6.79
2022-11-18T05:28:38.886Z,6.74
2022-11-18T05:31:10.410Z,6.70
2022-11-18T05:33:37.439Z,6.68
2022-11-18T05:36:10.612Z,6.67
2022-11-18T05:38:37.062Z,6.65
2022-11-18T05:41:03.978Z,6.63
2022-11-18T05:43:31.490Z,6.62
2022-11-18T05:45:58.141Z,6.59
2022-11-18T05:48:25.389Z,6.58
2022-11-18T05:50:53.830Z,6.58
2022-11-18T05:53:22.767Z,6.59
2022-11-18T05:56:07.490Z,6.58
2022-11-18T05:58:33.874Z,6.57
2022-11-18T06:01:04.715Z,6.53
2022-11-18T06:03:35.630Z,6.55
2022-11-18T06:06:04.434Z,6.55
2022-11-18T06:08:38.952Z,6.56
2022-11-18T06:11:10.596Z,6.52
2022-11-18T06:13:49.926Z,6.47
2022-11-18T06:16:20.634Z,6.44
2022-11-18T06:18:47.094Z,6.36
2022-11-18T06:21:13.576Z,6.29
2022-11-18T06:23:42.782Z,6.23
2022-11-18T06:26:09.820Z,6.20
2022-11-18T06:28:36.797Z,6.15
2022-11-18T06:31:03.249Z,6.08
2022-11-18T06:33:29.720Z,6.05
2022-11-18T06:35:56.204Z,6.02
2022-11-18T06:38:25.462Z,5.99
2022-11-18T06:40:52.236Z,5.90
2022-11-18T06:43:37.265Z,5.93
2022-11-18T06:46:25.283Z,5.83
2022-11-18T06:48:52.024Z,5.83
2022-11-18T06:51:18.663Z,5.83
2022-11-18T06:53:45.152Z,5.80
2022-11-18T06:56:13.817Z,5.79
2022-11-18T06:58:40.281Z,5.77
2022-11-18T07:01:14.362Z,5.78
2022-11-18T07:03:42.473Z,5.79
2022-11-18T07:06:10.033Z,5.78
2022-11-18T07:08:37.976Z,5.76
2022-11-18T07:11:06.678Z,5.82
2022-11-18T07:13:33.735Z,5.83
2022-11-18T07:16:11.740Z,5.82
2022-11-18T07:18:41.435Z,5.84
2022-11-18T07:21:13.573Z,5.89
2022-11-18T07:23:40.359Z,5.92
2022-11-18T07:26:07.643Z,5.93
2022-11-18T07:28:34.268Z,5.95
2022-11-18T07:31:05.838Z,5.99
2022-11-18T07:33:32.843Z,6.03
2022-11-18T07:36:05.558Z,6.07
2022-11-18T07:38:32.421Z,6.11
2022-11-18T07:41:09.690Z,6.15
2022-11-18T07:43:37.081Z,6.18
2022-11-18T07:46:23.440Z,6.19
2022-11-18T07:48:52.293Z,6.21
2022-11-18T07:51:20.602Z,6.24
2022-11-18T07:53:47.342Z,6.28
2022-11-18T07:56:14.717Z,6.31
2022-11-18T07:58:42.078Z,6.36
2022-11-18T08:01:11.312Z,6.42
2022-11-18T08:03:38.510Z,6.45
2022-11-18T08:06:07.272Z,6.50
2022-11-18T08:08:33.978Z,6.57
2022-11-18T08:11:02.335Z,6.62
2022-11-18T08:13:29.387Z,6.61
2022-11-18T08:15:56.258Z,6.67
2022-11-18T08:18:23.257Z,6.63
2022-11-18T08:20:49.740Z,6.63
2022-11-18T08:23:16.627Z,6.68
2022-11-18T08:25:45.374Z,6.67
2022-11-18T08:28:12.867Z,6.66
2022-11-18T08:30:39.956Z,6.64
2022-11-18T08:33:06.465Z,6.65
2022-11-18T08:35:33.595Z,6.69
2022-11-18T08:38:00.458Z,6.68
2022-11-18T08:40:26.899Z,6.70
2022-11-18T08:42:53.290Z,6.69
2022-11-18T08:45:19.901Z,6.73
2022-11-18T08:47:46.320Z,6.77
2022-11-18T08:50:12.781Z,6.81
2022-11-18T08:52:39.186Z,6.81
2022-11-18T08:55:05.840Z,6.82
2022-11-18T08:57:32.260Z,6.81
2022-11-18T08:59:58.645Z,6.80
2022-11-18T09:02:25.079Z,6.77
2022-11-18T09:04:52.418Z,6.77
2022-11-18T09:07:20.319Z,6.78
2022-11-18T09:09:47.021Z,6.78
2022-11-18T09:12:15.105Z,6.81
2022-11-18T09:17:31.615Z,6.89
2022-11-18T09:19:58.020Z,6.93
2022-11-18T09:22:24.603Z,6.98
2022-11-18T09:24:51.490Z,7.04
2022-11-18T09:27:18.337Z,7.09
2022-11-18T09:29:45.333Z,7.07
2022-11-18T09:32:12.029Z,7.07
2022-11-18T09:34:38.439Z,7.06
2022-11-18T09:37:06.465Z,7.04
2022-11-18T09:39:39.568Z,7.02
2022-11-18T09:42:12.497Z,7.03
2022-11-18T09:44:59.498Z,6.99
2022-11-18T09:47:27.831Z,6.97
2022-11-18T09:49:57.084Z,6.94
2022-11-18T09:52:35.898Z,6.89
2022-11-18T09:55:11.453Z,6.93
2022-11-18T09:57:41.246Z,6.92
2022-11-18T10:00:33.060Z,6.92
2022-11-18T10:03:23.328Z,6.90
2022-11-18T10:05:59.354Z,6.90
2022-11-18T10:08:31.676Z,6.84
2022-11-18T10:11:07.926Z,6.86
2022-11-18T10:13:52.907Z,6.86
2022-11-18T10:16:25.646Z,6.89
2022-11-18T10:19:03.872Z,6.91
2022-11-18T10:22:18.090Z,6.95
2022-11-18T10:24:50.170Z,6.96
2022-11-18T10:27:17.426Z,6.96
2022-11-18T10:29:46.127Z,6.98
2022-11-18T10:32:15.134Z,7.01
2022-11-18T10:34:58.242Z,7.05
2022-11-18T10:38:00.349Z,7.06
2022-11-18T10:40:29.155Z,7.11
2022-11-18T10:42:55.811Z,7.12
2022-11-18T10:45:22.165Z,7.17
2022-11-18T10:48:00.665Z,7.19
2022-11-18T10:50:40.094Z,7.20
2022-11-18T10:53:26.414Z,7.25
2022-11-18T10:56:02.017Z,7.27
2022-11-18T10:58:35.491Z,7.27
2022-11-18T11:01:21.257Z,7.27
2022-11-18T11:03:58.421Z,7.29
2022-11-18T11:06:38.229Z,7.28
2022-11-18T11:09:07.887Z,7.29
2022-11-18T11:11:39.843Z,7.32
2022-11-18T11:14:15.096Z,7.35
2022-11-18T11:16:49.285Z,7.39
2022-11-18T11:19:21.186Z,7.41
2022-11-18T11:21:47.597Z,7.43
2022-11-18T11:24:14.114Z,7.45
2022-11-18T11:30:15.026Z,7.52
2022-11-18T11:32:41.404Z,7.54
2022-11-18T11:35:30.011Z,7.59
2022-11-18T11:38:06.670Z,7.60
2022-11-18T11:40:44.371Z,7.64
2022-11-18T11:43:33.813Z,7.63
2022-11-18T11:46:00.179Z,7.64
2022-11-18T11:48:29.348Z,7.65
2022-11-18T11:51:05.057Z,7.59
2022-11-18T11:53:54.702Z,7.65
2022-11-18T11:56:33.143Z,7.75
2022-11-18T11:59:13.920Z,7.85
2022-11-18T12:01:57.606Z,7.98
2022-11-18T12:04:35.850Z,8.11
2022-11-18T12:07:06.536Z,8.14
2022-11-18T12:09:32.919Z,8.14
2022-11-18T12:12:36.558Z,8.12
2022-11-18T12:15:25.429Z,8.14
2022-11-18T12:18:12.800Z,8.06
2022-11-18T12:20:45.591Z,7.95
2022-11-18T12:23:13.459Z,7.91
2022-11-18T12:25:51.848Z,7.87
2022-11-18T12:28:28.200Z,7.82
2022-11-18T12:31:19.363Z,7.78
2022-11-18T12:33:55.380Z,7.72
2022-11-18T12:36:28.090Z,7.64
2022-11-18T12:38:55.735Z,7.62
2022-11-18T12:41:58.830Z,7.61
2022-11-18T12:44:27.564Z,7.57
2022-11-18T12:46:58.389Z,7.53
2022-11-18T12:49:25.048Z,7.53
2022-11-18T12:52:02.265Z,7.52
2022-11-18T12:54:38.036Z,7.49
2022-11-18T12:57:18.403Z,7.45
2022-11-18T12:59:45.075Z,7.45
2022-11-18T13:02:11.432Z,7.45
2022-11-18T13:04:44.968Z,7.48
2022-11-18T13:07:32.338Z,7.49
2022-11-18T13:09:59.029Z,7.53
2022-11-18T13:12:29.312Z,7.55
2022-11-18T13:15:14.471Z,7.55
2022-11-18T13:17:58.711Z,7.58
2022-11-18T13:20:31.326Z,7.60
2022-11-18T13:23:24.727Z,7.60
2022-11-18T13:25:51.270Z,7.58
2022-11-18T13:28:45.152Z,7.56
2022-11-18T13:31:42.335Z,7.52
2022-11-18T13:34:18.061Z,7.54
2022-11-18T13:36:46.090Z,7.55
2022-11-18T13:39:21.608Z,7.54
2022-11-18T13:41:58.858Z,7.55
2022-11-18T13:44:27.531Z,7.55
2022-11-18T13:47:11.127Z,7.54
2022-11-18T13:50:16.469Z,7.55
2022-11-18T13:52:48.063Z,7.54
2022-11-18T13:55:23.901Z,7.52
2022-11-18T13:57:56.240Z,7.53
2022-11-18T14:00:28.746Z,7.60
2022-11-18T14:03:00.563Z,7.60
2022-11-18T14:05:27.748Z,7.64
2022-11-18T14:08:07.594Z,7.62
2022-11-18T14:10:41.559Z,7.56
2022-11-18T14:13:26.288Z,7.52
2022-11-18T14:15:58.531Z,7.51
2022-11-18T14:18:36.045Z,7.47
2022-11-18T14:21:04.642Z,7.45
2022-11-18T14:23:36.467Z,7.37
2022-11-18T14:26:05.274Z,7.38
2022-11-18T14:28:39.471Z,7.38
2022-11-18T14:31:30.126Z,7.44
2022-11-18T14:34:23.878Z,7.57
2022-11-18T14:36:51.705Z,7.69
2022-11-18T14:39:27.437Z,7.88
2022-11-18T14:41:55.137Z,7.98
2022-11-18T14:44:24.423Z,7.95
2022-11-18T14:47:11.105Z,7.86
2022-11-18T14:49:37.632Z,7.77
2022-11-18T14:52:04.579Z,7.64
2022-11-18T14:54:31.487Z,7.57
2022-11-18T14:57:02.475Z,7.50
2022-11-18T14:59:29.627Z,7.42
2022-11-18T15:01:59.388Z,7.40
2022-11-18T15:04:26.113Z,7.35
2022-11-18T15:06:52.631Z,7.33
2022-11-18T15:09:19.074Z,7.33
2022-11-18T15:11:45.445Z,7.31
2022-11-18T15:14:11.851Z,7.27
2022-11-18T15:16:38.430Z,7.27
2022-11-18T15:19:06.265Z,7.28
2022-11-18T15:21:32.742Z,7.26
2022-11-18T15:23:59.264Z,7.27
2022-11-18T15:26:35.870Z,7.26
2022-11-18T15:29:02.370Z,7.25
2022-11-18T15:31:28.818Z,7.24
2022-11-18T15:33:55.374Z,7.23
2022-11-18T15:36:26.787Z,7.23
2022-11-18T15:38:54.468Z,7.18
2022-11-18T15:41:23.298Z,7.17
2022-11-18T15:43:50.588Z,7.19
2022-11-18T15:46:19.390Z,7.17
2022-11-18T15:48:46.514Z,7.17
2022-11-18T15:51:13.110Z,7.14
2022-11-18T15:53:40.263Z,7.16
2022-11-18T15:56:18.549Z,7.13
2022-11-18T15:58:46.092Z,7.10
2022-11-18T16:01:12.561Z,7.08
2022-11-18T16:03:39.007Z,7.07
2022-11-18T16:06:05.623Z,7.06
2022-11-18T16:08:32.109Z,7.04
2022-11-18T16:11:17.273Z,7.02
2022-11-18T16:13:43.683Z,6.98
2022-11-18T16:16:28.165Z,6.96
2022-11-18T16:18:55.444Z,6.89
2022-11-18T16:21:22.016Z,6.91
2022-11-18T16:23:48.425Z,6.91
2022-11-18T16:26:17.374Z,6.85
2022-11-18T16:28:44.108Z,6.90
2022-11-18T16:31:29.175Z,6.92
2022-11-18T16:33:55.618Z,6.95
2022-11-18T16:36:27.089Z,6.96
2022-11-18T16:42:59.842Z,6.98
2022-11-18T16:45:26.272Z,6.98
2022-11-18T16:47:52.745Z,7.00
2022-11-18T16:50:19.243Z,7.04
2022-11-18T16:52:45.827Z,7.05
2022-11-18T16:55:12.232Z,7.08
2022-11-18T16:57:38.672Z,7.11
2022-11-18T17:00:05.601Z,7.16
2022-11-18T17:02:32.138Z,7.17
2022-11-18T17:04:58.633Z,7.18
2022-11-18T17:07:25.109Z,7.19
2022-11-18T17:09:51.631Z,7.18
2022-11-18T17:12:18.051Z,7.19
2022-11-18T17:14:44.426Z,7.20
2022-11-18T17:17:10.827Z,7.18
2022-11-18T17:19:37.237Z,7.18
2022-11-18T17:22:03.654Z,7.14
2022-11-18T17:24:30.166Z,7.13
2022-11-18T17:26:56.598Z,7.09
2022-11-18T17:29:22.978Z,7.06
2022-11-18T17:31:49.581Z,7.03
2022-11-18T17:34:16.577Z,6.99
2022-11-18T17:36:43.532Z,6.97
2022-11-18T17:39:12.002Z,6.96
2022-11-18T17:41:57.634Z,6.93
2022-11-18T17:44:24.587Z,6.92
2022-11-18T17:46:51.341Z,6.89
2022-11-18T17:49:18.963Z,6.88
2022-11-18T17:51:48.759Z,6.89
2022-11-18T17:54:16.122Z,6.86
2022-11-18T17:56:43.065Z,6.86
2022-11-18T17:59:09.512Z,6.87
2022-11-18T18:01:36.091Z,6.87
2022-11-18T18:04:03.047Z,6.89
2022-11-18T18:06:29.557Z,6.88
2022-11-18T18:08:59.545Z,6.83
2022-11-18T18:11:27.425Z,6.81
2022-11-18T18:14:12.381Z,6.83
2022-11-18T18:16:47.727Z,6.84
2022-11-18T18:19:19.737Z,6.83
2022-11-18T18:21:46.659Z,6.85
2022-11-18T18:24:15.229Z,6.82
2022-11-18T18:26:41.918Z,6.87
2022-11-18T18:29:08.401Z,6.87
2022-11-18T18:31:36.683Z,6.86
2022-11-18T18:34:03.772Z,6.87
2022-11-18T18:36:30.241Z,6.87
2022-11-18T18:38:58.020Z,6.83
2022-11-18T18:41:24.658Z,6.87
2022-11-18T18:43:51.084Z,6.86
2022-11-18T18:46:29.843Z,6.87
2022-11-18T18:49:08.828Z,6.88
2022-11-18T18:51:38.309Z,6.90
2022-11-18T18:54:06.413Z,6.90
2022-11-18T18:56:33.741Z,6.89
2022-11-18T18:59:00.386Z,6.85
2022-11-18T19:01:28.264Z,6.86
2022-11-18T19:04:01.145Z,6.85
2022-11-18T19:09:18.045Z,6.78
2022-11-18T19:12:03.748Z,6.76
2022-11-18T19:14:30.215Z,6.78
2022-11-18T19:16:57.469Z,6.77
2022-11-18T19:19:45.699Z,6.74
2022-11-18T19:22:14.288Z,6.75
2022-11-18T19:24:49.635Z,6.72
2022-11-18T19:27:17.557Z,6.72
2022-11-18T19:29:44.211Z,6.72
2022-11-18T19:32:10.661Z,6.72
2022-11-18T19:34:37.051Z,6.71
2022-11-18T19:37:03.454Z,6.67
2022-11-18T19:39:29.942Z,6.63
2022-11-18T19:41:56.362Z,6.61
2022-11-18T19:44:22.881Z,6.60
2022-11-18T19:46:49.257Z,6.61
2022-11-18T19:49:15.667Z,6.61
2022-11-18T19:51:42.061Z,6.57
2022-11-18T19:54:08.477Z,6.59
2022-11-18T19:56:34.909Z,6.57
2022-11-18T19:59:01.371Z,6.54
2022-11-18T20:01:28.930Z,6.53
2022-11-18T20:04:01.736Z,6.54
2022-11-18T20:06:28.279Z,6.54
2022-11-18T20:08:55.871Z,6.59
2022-11-18T20:11:23.422Z,6.60
2022-11-18T20:13:50.190Z,6.60
2022-11-18T20:16:24.777Z,6.63
2022-11-18T20:18:56.289Z,6.65
2022-11-18T20:21:24.121Z,6.66
2022-11-18T20:23:59.308Z,6.70
2022-11-18T20:26:28.841Z,6.72
2022-11-18T20:28:57.770Z,6.71
2022-11-18T20:31:25.858Z,6.75
2022-11-18T20:33:54.130Z,6.75
2022-11-18T20:36:23.322Z,6.75
2022-11-18T20:38:52.351Z,6.78
2022-11-18T20:41:19.776Z,6.80
2022-11-18T20:43:48.032Z,6.81
2022-11-18T20:46:20.368Z,6.82
2022-11-18T20:48:47.919Z,6.79
2022-11-18T20:51:23.321Z,6.78
2022-11-18T20:53:51.378Z,6.75
2022-11-18T20:56:19.957Z,6.75
2022-11-18T20:58:47.200Z,6.73
2022-11-18T21:01:19.048Z,6.68
2022-11-18T21:03:52.564Z,6.70
2022-11-18T21:06:20.019Z,6.72
2022-11-18T21:08:46.634Z,6.68
2022-11-18T21:11:13.537Z,6.69
2022-11-18T21:13:59.119Z,6.65
2022-11-18T21:16:27.360Z,6.65
2022-11-18T21:18:54.051Z,6.65
2022-11-18T21:21:38.934Z,6.65
2022-11-18T21:24:05.855Z,6.64
2022-11-18T21:26:34.148Z,6.59
2022-11-18T21:29:03.079Z,6.66
2022-11-18T21:31:30.208Z,6.69
2022-11-18T21:33:57.081Z,6.68
2022-11-18T21:36:25.450Z,6.71
2022-11-18T21:38:52.007Z,6.69
2022-11-18T21:41:18.938Z,6.69
2022-11-18T21:46:33.687Z,6.69
2022-11-18T21:49:00.629Z,6.70
2022-11-18T21:51:27.915Z,6.69
2022-11-18T21:53:54.641Z,6.69
2022-11-18T21:56:22.891Z,6.69
2022-11-18T21:58:50.056Z,6.64
2022-11-18T22:01:24.662Z,6.70
2022-11-18T22:03:55.614Z,6.68
2022-11-18T22:06:29.602Z,6.68
2022-11-18T22:08:56.484Z,6.67
2022-11-18T22:11:23.428Z,6.65
2022-11-18T22:13:51.862Z,6.64
2022-11-18T22:16:20.940Z,6.59
2022-11-18T22:18:54.708Z,6.59
2022-11-18T22:21:22.863Z,6.57
2022-11-18T22:23:49.472Z,6.56
2022-11-18T22:26:18.408Z,6.56
2022-11-18T22:28:46.013Z,6.55
2022-11-18T22:31:18.239Z,6.49
2022-11-18T22:33:44.647Z,6.50
2022-11-18T22:36:13.755Z,6.47
2022-11-18T22:38:41.357Z,6.44
2022-11-18T22:41:48.637Z,6.43
2022-11-18T22:44:16.521Z,6.43
2022-11-18T22:46:44.790Z,6.45
2022-11-18T22:49:12.318Z,6.44
2022-11-18T22:51:39.402Z,6.44
2022-11-18T22:56:54.032Z,6.42
2022-11-18T22:59:20.905Z,6.38
2022-11-18T23:01:47.704Z,6.37
2022-11-18T23:04:14.121Z,6.37
2022-11-18T23:06:40.617Z,6.34
2022-11-18T23:09:07.072Z,6.33
2022-11-18T23:11:51.862Z,6.32
2022-11-18T23:14:18.260Z,6.29
2022-11-18T23:16:44.693Z,6.26
2022-11-18T23:19:13.912Z,6.23
2022-11-18T23:21:41.361Z,6.21
2022-11-18T23:24:11.428Z,6.18
2022-11-18T23:26:38.341Z,6.17
2022-11-18T23:29:05.099Z,6.13
2022-11-18T23:31:31.648Z,6.13
2022-11-18T23:33:59.281Z,6.17
2022-11-18T23:36:26.438Z,6.09
2022-11-18T23:38:53.920Z,6.10
2022-11-18T23:41:21.646Z,6.08
2022-11-18T23:43:48.848Z,6.09
2022-11-18T23:46:16.922Z,6.10
2022-11-18T23:48:44.883Z,6.10
2022-11-18T23:51:14.154Z,6.09
2022-11-18T23:53:40.959Z,6.09
2022-11-18T23:56:10.329Z,6.12
2022-11-18T23:58:38.191Z,6.08
